Ana Sayfa
METAR-TAF:

METAR-TAF

Havaalanları :

Florianópolis, Santa Catarina, Brezilya

Enlem: 27-40S, Boylam: 048-33W, yükseklik: 5 m

Güncel hava durumu gözlemi

Rapor saat 01:00 UTC de 43 dakika önce yapıldı.
Rüzgar kuzey/kuzeydoğudan 4 kt
Sıcaklık 24°C
Nem 83%
Basınç 1016 hPa
Görüş mesafesi 10 km veya daha fazla
3000 ft yükseklikte parçalı çok bulutlu

METAR: SBFL 200100Z 02004KT 9999 BKN030 24/21 Q1016

Saat: 22:43 (01:43 UTC)

Tahmin

Rapor saat 21:30 UTC de 4 saat ve 13 dakika önce yapıldı.
Ayın 20'si saat 00 UTC'den ayın 20'si saat 24 UTC'ye kadar geçerli Tahmin
Rüzgar kuzey/kuzeybatıdan 7 kt
Görüş mesafesi 10 km veya daha fazla
2500 ft yükseklikte parçalı çok bulutlu
Dönüşüyor
ayın 20'si saat 12 UTC'den ayın 20'si saat 14 UTC'ye kadar
Rüzgar kuzey/kuzeydoğudan 10 kt
3000 ft yükseklikte parçalı bulutlu

TAF: SBFL 192130Z 2000/2024 34007KT 9999 BKN025 TN22/2008Z TX30/2017Z BECMG 2012/2014 02010KT SCT030 RMK PEL

4.000'den fazla havaalanı için hava durumu gözlemleri ve tahminleri (METAR ve TAF raporları).

Kullanılabilir istasyonlar harita üzerinde sarı ve kırmızı noktalarla gösterilir.

İstasyonun adını görmek için fareyi noktanın üzerinde gezdirin.

Sonrasında hava gözlem ve tahminlerini görmek için tıklayın.

Haritayı değiştirmek için: yaklaştırmak için siyah artı işaretli yeşil düğmeye ve uzaklaştırmak için de eksi işaretli düğmeye hızla tıklayın; bitişik haritalar için yeşil okları kullanın.


METAR-TAF: